Flight Track Log - Related Links

Times and Time Zones

All times are in EDT time to prevent confusion due to time zone crossing. See the FSR411 flight status page for this flight to view local times or setup timezone preferences in your user account.

Time Position Orientation Groundspeed Altitude Reporting Facility
EDT Latitude Longitude Course Direction KTS MPH feet Rate Location/Type
Wed 09:54:09 AM 39.9344 -88.2794 193° South 227 261 6,200  Level Chicago Center
Wed 09:55:11 AM 39.8711 -88.2989 193° South 232 267 9,600 3,097 Climbing Chicago Center
Wed 09:56:13 AM 39.7975 -88.3164 190° South 266 306 12,600 2,952 Climbing Chicago Center
Wed 09:57:15 AM 39.7044 -88.3400 191° South 334 384 15,700 3,145 Climbing Chicago Center
Wed 09:58:17 AM 39.5775 -88.3731 191° South 383 441 19,100 3,097 Climbing Chicago Center
Wed 09:59:19 AM 39.4664 -88.4014 191° South 402 463 22,100 2,758 Climbing Chicago Center
Wed 10:00:21 AM 39.3544 -88.4286 191° South 408 470 24,800 1,790 Climbing Chicago Center
Wed 10:01:23 AM 39.2356 -88.4592 191° South 434 499 25,800 1,065 Climbing Chicago Center
Wed 10:02:25 AM 39.1097 -88.4919 191° South 458 527 27,000 581 Climbing Chicago Center
Wed 10:03:27 AM 38.9822 -88.5225 191° South 465 535 27,000 871 Level Chicago Center
Wed 10:04:29 AM 38.8458 -88.5578 191° South 461 531 28,800 1,233 Climbing Chicago Center
Wed 10:05:53 AM 38.6644 -88.6022 191° South 451 519 30,000 493 Climbing Kansas City Center
Wed 10:06:55 AM 38.5447 -88.6317 191° South 445 512 30,000  Level Kansas City Center
Wed 10:07:57 AM 38.4247 -88.6600 190° South 441 507 30,000  Level Kansas City Center
Wed 10:08:58 AM 38.2931 -88.6936 191° South 442 509 30,000  Level Kansas City Center
Wed 10:10:00 AM 38.1736 -88.7217 190° South 439 505 30,000  Level Kansas City Center
Wed 10:11:02 AM 38.0528 -88.7508 191° South 440 506 30,000 968 Level Kansas City Center
Wed 10:12:04 AM 37.9328 -88.7789 190° South 439 505 32,000 1,790 Climbing Kansas City Center
Wed 10:13:06 AM 37.8153 -88.8083 191° South 435 501 33,700 1,463 Climbing Kansas City Center
Wed 10:14:07 AM 37.6867 -88.8392 191° South 431 496 35,000 1,122 Climbing Kansas City Center
Wed 10:15:09 AM 37.5650 -88.8686 191° South 440 506 36,000 1,065 Climbing Kansas City Center
Wed 10:16:11 AM 37.4425 -88.8975 191° South 446 513 37,200 1,258 Climbing Kansas City Center
Wed 10:17:13 AM 37.3222 -88.9253 190° South 442 509 38,600 1,346 Climbing Kansas City Center
Wed 10:17:58 AM 37.2281 -88.9528 193° South 441 507 39,600 800 Climbing Memphis Center
Wed 10:18:58 AM 37.1117 -88.9808 191° South 441 507 40,000 200 Climbing Memphis Center
Wed 10:19:58 AM 36.9911 -89.0089 191° South 446 513 40,000  Level Memphis Center
Wed 10:20:58 AM 36.8728 -89.0369 191° South 446 513 40,000  Level Memphis Center
Wed 10:21:58 AM 36.7542 -89.0647 191° South 446 513 40,000  Level Memphis Center
Wed 10:22:58 AM 36.6378 -89.0900 190° South 446 513 40,000  Level Memphis Center
Wed 10:23:58 AM 36.5214 -89.1122 189° South 441 507 40,000  Level Memphis Center
Wed 10:24:58 AM 36.4006 -89.1400 190° South 441 507 40,000  Level Memphis Center
Wed 10:25:58 AM 36.2697 -89.1678 190° South 441 507 40,000  Level Memphis Center
Wed 10:26:58 AM 36.1553 -89.2003 193° South 441 507 40,000  Level Memphis Center
Wed 10:27:58 AM 36.0408 -89.2275 191° South 431 496 40,000  Level Memphis Center
Wed 10:28:58 AM 35.9283 -89.2547 191° South 426 490 40,000  Level Memphis Center
Wed 10:29:58 AM 35.8097 -89.2794 190° South 431 496 40,000  Level Memphis Center
Wed 10:30:58 AM 35.6953 -89.3064 191° South 431 496 40,000  Level Memphis Center
Wed 10:31:58 AM 35.5872 -89.3283 189° South 424 488 40,000  Level Memphis Center
Wed 10:32:58 AM 35.4683 -89.3578 191° South 424 488 40,000  Level Memphis Center
Wed 10:33:58 AM 35.3519 -89.3819 190° South 429 494 40,000  Level Memphis Center
Wed 10:34:58 AM 35.2331 -89.4114 191° South 429 494 40,000  Level Memphis Center
Wed 10:35:58 AM 35.1269 -89.4328 189° South 429 494 40,000  Level Memphis Center
Wed 10:36:58 AM 35.0083 -89.4569 189° South 429 494 40,000  Level Memphis Center
Wed 10:37:58 AM 34.8875 -89.4811 189° South 429 494 40,000  Level Memphis Center
Wed 10:38:58 AM 34.7603 -89.5103 191° South 451 519 40,000  Level Memphis Center
Wed 10:39:58 AM 34.6269 -89.5444 192° South 451 519 40,000  Level Memphis Center
Wed 10:40:58 AM 34.5061 -89.5708 190° South 451 519 40,000  Level Memphis Center
Wed 10:41:58 AM 34.3875 -89.5994 191° South 446 513 40,000  Level Memphis Center
Wed 10:42:58 AM 34.2686 -89.6258 190° South 446 513 40,000  Level Memphis Center
Wed 10:43:58 AM 34.1478 -89.6519 190° South 441 507 40,000  Level Memphis Center
Wed 10:44:58 AM 34.0289 -89.6806 191° South 441 507 40,000  Level Memphis Center
Wed 10:45:58 AM 33.9225 -89.7039 190° South 449 517 40,000  Level Memphis Center
Wed 10:46:58 AM 33.8058 -89.7322 191° South 442 509 40,000  Level Memphis Center
Wed 10:47:58 AM 33.6869 -89.7581 190° South 431 496 40,000  Level Memphis Center
Wed 10:48:58 AM 33.5703 -89.7814 189° South 431 496 40,000  Level Memphis Center
Wed 10:49:58 AM 33.4494 -89.8094 191° South 431 496 40,000  Level Memphis Center
Wed 10:50:58 AM 33.3325 -89.8325 189° South 431 496 40,000  Level Memphis Center
Wed 10:51:58 AM 33.2136 -89.8581 190° South 431 496 40,000  Level Memphis Center
Wed 10:52:58 AM 33.0989 -89.8861 192° South 431 496 40,000  Level Memphis Center
Wed 10:53:58 AM 32.9572 -89.9117 189° South 451 519 40,000  Level Memphis Center
Wed 10:54:58 AM 32.8403 -89.9394 191° South 446 513 40,000  Level Memphis Center
Wed 10:55:58 AM 32.7192 -89.9647 190° South 446 513 40,000 -250 Level Memphis Center
Wed 10:56:58 AM 32.6003 -89.9900 190° South 446 513 39,500  Descending Memphis Center
Wed 10:57:58 AM 32.4814 -90.0150 190° South 446 513 40,000 -1,200 Climbing Memphis Center
Wed 10:58:58 AM 32.3583 -90.0400 190° South 446 513 37,100 -2,116 Descending Memphis Center
Wed 11:01:25 AM 32.0703 -90.0992 190° South 446 513 32,700 -1,780 Descending Houston Center
Wed 11:02:27 AM 31.9478 -90.1250 190° South 447 514 30,900 -1,742 Descending Houston Center
Wed 11:03:29 AM 31.8242 -90.1511 190° South 451 519 29,100 -1,500 Descending Houston Center
Wed 11:04:31 AM 31.7003 -90.1781 190° South 452 520 27,800 -1,645 Descending Houston Center
Wed 11:05:33 AM 31.5492 -90.2083 190° South 460 529 25,700 -1,839 Descending Houston Center
Wed 11:06:35 AM 31.4239 -90.2347 190° South 460 529 24,000 -1,548 Descending Houston Center
Wed 11:07:37 AM 31.3072 -90.2578 190° South 432 497 22,500 -1,776 Descending Houston Center
Wed 11:08:40 AM 31.1828 -90.2522 178° South 446 513 20,300 -1,920 Descending Houston Center
Wed 11:09:42 AM 31.0636 -90.2403 175° South 433 498 18,500 -1,839 Descending Houston Center
Wed 11:10:44 AM 30.9256 -90.2317 177° South 417 480 16,500 -1,790 Descending Houston Center
Wed 11:11:46 AM 30.8125 -90.2225 176° South 411 473 14,800 -1,692 Descending Houston Center
Wed 11:12:02 AM 30.7794 -90.2189 175° South 407 468 14,300 -1,645 Descending Houston Center
Wed 11:12:48 AM 30.7042 -90.2147 177° South 396 456 13,100 -1,574 Descending Houston Center
Wed 11:13:03 AM 30.6728 -90.2114 175° South 383 441 12,700 -1,452 Descending Houston Center
Wed 11:13:50 AM 30.6069 -90.2097 179° South 361 415 11,600 -1,727 Descending Houston Center
Wed 11:14:09 AM 30.5664 -90.2181 190° South 314 361 10,800 -1,839 Descending Houston Center
Wed 11:14:52 AM 30.5233 -90.2314 195° South 316 364 9,700 -1,967 Descending Houston Center
Wed 11:15:10 AM 30.4836 -90.2456 197° South 306 352 8,800 -2,226 Descending Houston Center
Wed 11:15:54 AM 30.4261 -90.2656 197° South 307 353 7,400 -1,770 Descending Houston Center
Wed 11:16:11 AM 30.4028 -90.2728 195° South 298 343 7,000 -1,452 Descending Houston Center
Wed 11:16:56 AM 30.3517 -90.2906 197° South 290 334 5,900 -1,527 Descending Houston Center
Wed 11:17:06 AM 30.3389 -90.2947 196° South 265 305 5,600 -1,524 Descending Houston Center
Wed 11:17:59 AM 30.2858 -90.3139 197° South 264 304 4,300 -1,455 Descending Houston Center
Wed 11:18:12 AM 30.2664 -90.3192 193° South 243 280 4,000 -387 Descending Houston Center
Wed 11:19:01 AM 30.2244 -90.3344 197° South 247 284 3,900  Descending Houston Center
Wed 11:19:07 AM 30.2106 -90.3383 194° South 230 265 4,000 -290 Climbing Houston Center
Wed 11:20:03 AM 30.1667 -90.3519 195° South 232 267 3,600 -590 Descending Houston Center
Wed 11:20:08 AM 30.1567 -90.3547 194° South 190 219 3,400 -1,161 Descending Houston Center
Wed 11:21:05 AM 30.1108 -90.3717 198° South 199 229 2,400 -985 Descending Houston Center
Wed 11:21:15 AM 30.1031 -90.3739 194° South 161 185 2,300 -676 Descending Houston Center
Wed 11:22:16 AM 30.0636 -90.3850 194° South 146 168 1,600 -421 Descending Houston Center
Wed 11:23:09 AM 30.0325 -90.3803 173° South 154 177 1,500 -200 Descending Houston Center
Wed 11:23:16 AM 30.0258 -90.3767 155° Southeast 128 147 1,400 -484 Descending Houston Center
Wed 11:24:11 AM 30.0131 -90.3489 118° Southeast 138 159 1,000 -448 Descending Houston Center
Wed 11:24:23 AM 30.0078 -90.3342 112° Southeast 140 161 900 -581 Descending Houston Center
Wed 11:25:13 AM 30.0044 -90.3100 99° East 133 153 400 -655 Descending Houston Center
Wed 11:25:18 AM 30.0006 -90.3008 116° Southeast 119 137 300 -95 Descending Houston Center
Wed 11:26:16 AM 29.9944 -90.2742 105° East 130 150 300  Level Houston Center

Login

Don't have an account? Register now (free) for customized features, flight alerts, and more!